sensor_id;sensor_type;location;lat;lon;timestamp;P1;durP1;ratioP1;P2;durP2;ratioP2
15536;SDS011;7870;52.448;13.270;2023-04-24T00:00:32;5.80;;;5.18;;
15536;SDS011;7870;52.448;13.270;2023-04-24T00:02:59;6.93;;;5.30;;
15536;SDS011;7870;52.448;13.270;2023-04-24T00:05:26;6.82;;;5.65;;
15536;SDS011;7870;52.448;13.270;2023-04-24T00:07:52;6.15;;;5.32;;
15536;SDS011;7870;52.448;13.270;2023-04-24T00:10:19;5.93;;;5.32;;
15536;SDS011;7870;52.448;13.270;2023-04-24T00:12:46;8.95;;;5.68;;
15536;SDS011;7870;52.448;13.270;2023-04-24T00:15:13;8.07;;;5.85;;
15536;SDS011;7870;52.448;13.270;2023-04-24T00:17:39;6.13;;;5.40;;
15536;SDS011;7870;52.448;13.270;2023-04-24T00:20:06;7.28;;;5.85;;
15536;SDS011;7870;52.448;13.270;2023-04-24T00:22:33;6.22;;;5.63;;
15536;SDS011;7870;52.448;13.270;2023-04-24T00:25:00;6.10;;;5.45;;
15536;SDS011;7870;52.448;13.270;2023-04-24T00:27:26;7.25;;;6.32;;
15536;SDS011;7870;52.448;13.270;2023-04-24T00:29:54;8.23;;;5.68;;
15536;SDS011;7870;52.448;13.270;2023-04-24T00:32:20;6.63;;;5.60;;
15536;SDS011;7870;52.448;13.270;2023-04-24T00:34:47;6.15;;;5.55;;
15536;SDS011;7870;52.448;13.270;2023-04-24T00:37:14;6.63;;;5.65;;
15536;SDS011;7870;52.448;13.270;2023-04-24T00:39:43;6.45;;;5.65;;
15536;SDS011;7870;52.448;13.270;2023-04-24T00:42:10;10.25;;;5.90;;
15536;SDS011;7870;52.448;13.270;2023-04-24T00:44:37;6.57;;;5.88;;
15536;SDS011;7870;52.448;13.270;2023-04-24T00:47:03;6.25;;;5.65;;
15536;SDS011;7870;52.448;13.270;2023-04-24T00:49:30;7.65;;;6.63;;
15536;SDS011;7870;52.448;13.270;2023-04-24T00:51:57;8.02;;;5.63;;
15536;SDS011;7870;52.448;13.270;2023-04-24T00:54:25;6.35;;;5.75;;
15536;SDS011;7870;52.448;13.270;2023-04-24T00:56:52;6.72;;;5.90;;
15536;SDS011;7870;52.448;13.270;2023-04-24T00:59:18;7.25;;;5.57;;
15536;SDS011;7870;52.448;13.270;2023-04-24T01:01:45;7.75;;;6.38;;
15536;SDS011;7870;52.448;13.270;2023-04-24T01:04:12;5.80;;;5.20;;
15536;SDS011;7870;52.448;13.270;2023-04-24T01:06:39;6.45;;;5.85;;
15536;SDS011;7870;52.448;13.270;2023-04-24T01:09:06;6.38;;;5.57;;
15536;SDS011;7870;52.448;13.270;2023-04-24T01:11:36;5.90;;;5.30;;
15536;SDS011;7870;52.448;13.270;2023-04-24T01:14:03;5.93;;;5.32;;
15536;SDS011;7870;52.448;13.270;2023-04-24T01:16:30;6.78;;;5.50;;
15536;SDS011;7870;52.448;13.270;2023-04-24T01:18:57;7.45;;;6.00;;
15536;SDS011;7870;52.448;13.270;2023-04-24T01:21:23;10.05;;;6.10;;
15536;SDS011;7870;52.448;13.270;2023-04-24T01:23:55;7.95;;;6.40;;
15536;SDS011;7870;52.448;13.270;2023-04-24T01:26:23;7.13;;;6.25;;
15536;SDS011;7870;52.448;13.270;2023-04-24T01:28:51;6.93;;;6.22;;
15536;SDS011;7870;52.448;13.270;2023-04-24T01:31:18;6.78;;;6.18;;
15536;SDS011;7870;52.448;13.270;2023-04-24T01:33:45;7.50;;;6.80;;
15536;SDS011;7870;52.448;13.270;2023-04-24T01:36:12;8.02;;;7.03;;
15536;SDS011;7870;52.448;13.270;2023-04-24T01:38:39;7.78;;;6.70;;
15536;SDS011;7870;52.448;13.270;2023-04-24T01:41:06;7.78;;;6.95;;
15536;SDS011;7870;52.448;13.270;2023-04-24T01:43:33;6.82;;;6.18;;
15536;SDS011;7870;52.448;13.270;2023-04-24T01:45:59;7.28;;;6.57;;
15536;SDS011;7870;52.448;13.270;2023-04-24T01:48:26;8.82;;;6.75;;
15536;SDS011;7870;52.448;13.270;2023-04-24T01:50:53;7.88;;;7.18;;
15536;SDS011;7870;52.448;13.270;2023-04-24T01:53:20;7.97;;;7.22;;
15536;SDS011;7870;52.448;13.270;2023-04-24T01:55:46;7.15;;;6.47;;
15536;SDS011;7870;52.448;13.270;2023-04-24T01:58:13;7.82;;;7.03;;
15536;SDS011;7870;52.448;13.270;2023-04-24T02:00:39;8.10;;;6.97;;
15536;SDS011;7870;52.448;13.270;2023-04-24T02:03:06;8.75;;;7.25;;
15536;SDS011;7870;52.448;13.270;2023-04-24T02:05:33;7.25;;;6.63;;
15536;SDS011;7870;52.448;13.270;2023-04-24T02:08:02;8.10;;;7.30;;
15536;SDS011;7870;52.448;13.270;2023-04-24T02:10:28;9.38;;;7.13;;
15536;SDS011;7870;52.448;13.270;2023-04-24T02:12:57;8.10;;;7.30;;
15536;SDS011;7870;52.448;13.270;2023-04-24T02:15:25;7.43;;;6.80;;
15536;SDS011;7870;52.448;13.270;2023-04-24T02:17:52;8.05;;;7.25;;
15536;SDS011;7870;52.448;13.270;2023-04-24T02:20:18;8.48;;;7.38;;
15536;SDS011;7870;52.448;13.270;2023-04-24T02:22:45;8.15;;;7.35;;
15536;SDS011;7870;52.448;13.270;2023-04-24T02:25:12;7.80;;;7.10;;
15536;SDS011;7870;52.448;13.270;2023-04-24T02:27:38;8.10;;;7.30;;
15536;SDS011;7870;52.448;13.270;2023-04-24T02:30:05;8.68;;;7.63;;
15536;SDS011;7870;52.448;13.270;2023-04-24T02:32:32;8.15;;;7.45;;
15536;SDS011;7870;52.448;13.270;2023-04-24T02:35:00;7.70;;;7.00;;
15536;SDS011;7870;52.448;13.270;2023-04-24T02:37:27;8.10;;;7.30;;
15536;SDS011;7870;52.448;13.270;2023-04-24T02:39:53;7.43;;;6.72;;
15536;SDS011;7870;52.448;13.270;2023-04-24T02:42:20;7.40;;;6.68;;
15536;SDS011;7870;52.448;13.270;2023-04-24T02:44:47;7.90;;;7.10;;
15536;SDS011;7870;52.448;13.270;2023-04-24T02:47:13;8.77;;;7.97;;
15536;SDS011;7870;52.448;13.270;2023-04-24T02:49:40;8.30;;;7.50;;
15536;SDS011;7870;52.448;13.270;2023-04-24T02:52:09;9.52;;;7.82;;
15536;SDS011;7870;52.448;13.270;2023-04-24T02:54:36;8.93;;;8.02;;
15536;SDS011;7870;52.448;13.270;2023-04-24T02:57:03;9.38;;;8.05;;
15536;SDS011;7870;52.448;13.270;2023-04-24T02:59:30;9.50;;;8.50;;
15536;SDS011;7870;52.448;13.270;2023-04-24T03:01:56;9.02;;;7.97;;
15536;SDS011;7870;52.448;13.270;2023-04-24T03:04:23;10.15;;;8.23;;
15536;SDS011;7870;52.448;13.270;2023-04-24T03:06:49;9.40;;;8.20;;
15536;SDS011;7870;52.448;13.270;2023-04-24T03:09:19;9.10;;;7.57;;
15536;SDS011;7870;52.448;13.270;2023-04-24T03:11:46;8.90;;;8.10;;
15536;SDS011;7870;52.448;13.270;2023-04-24T03:14:13;8.00;;;7.20;;
15536;SDS011;7870;52.448;13.270;2023-04-24T03:16:39;9.10;;;7.38;;
15536;SDS011;7870;52.448;13.270;2023-04-24T03:19:06;8.32;;;7.55;;
15536;SDS011;7870;52.448;13.270;2023-04-24T03:21:40;8.88;;;7.97;;
15536;SDS011;7870;52.448;13.270;2023-04-24T03:24:07;9.32;;;8.30;;
15536;SDS011;7870;52.448;13.270;2023-04-24T03:26:35;8.55;;;7.70;;
15536;SDS011;7870;52.448;13.270;2023-04-24T03:29:20;10.50;;;8.05;;
15536;SDS011;7870;52.448;13.270;2023-04-24T03:31:47;8.75;;;7.95;;
15536;SDS011;7870;52.448;13.270;2023-04-24T03:34:14;9.98;;;8.98;;
15536;SDS011;7870;52.448;13.270;2023-04-24T03:36:40;8.75;;;8.00;;
15536;SDS011;7870;52.448;13.270;2023-04-24T03:39:07;14.65;;;11.80;;
15536;SDS011;7870;52.448;13.270;2023-04-24T03:41:36;8.68;;;7.88;;
15536;SDS011;7870;52.448;13.270;2023-04-24T03:44:11;10.30;;;8.10;;
15536;SDS011;7870;52.448;13.270;2023-04-24T03:46:39;8.70;;;7.18;;
15536;SDS011;7870;52.448;13.270;2023-04-24T03:49:06;7.70;;;6.85;;
15536;SDS011;7870;52.448;13.270;2023-04-24T03:51:36;8.10;;;7.40;;
15536;SDS011;7870;52.448;13.270;2023-04-24T03:54:12;8.13;;;7.38;;
15536;SDS011;7870;52.448;13.270;2023-04-24T03:56:40;7.60;;;6.90;;
15536;SDS011;7870;52.448;13.270;2023-04-24T03:59:07;7.55;;;6.72;;
15536;SDS011;7870;52.448;13.270;2023-04-24T04:01:39;9.20;;;7.22;;
15536;SDS011;7870;52.448;13.270;2023-04-24T04:04:12;8.70;;;7.90;;
15536;SDS011;7870;52.448;13.270;2023-04-24T04:06:40;8.50;;;7.63;;
15536;SDS011;7870;52.448;13.270;2023-04-24T04:09:07;8.75;;;7.90;;
15536;SDS011;7870;52.448;13.270;2023-04-24T04:11:35;7.93;;;7.22;;
15536;SDS011;7870;52.448;13.270;2023-04-24T04:14:01;7.93;;;7.22;;
15536;SDS011;7870;52.448;13.270;2023-04-24T04:16:29;8.57;;;7.30;;
15536;SDS011;7870;52.448;13.270;2023-04-24T04:19:01;6.95;;;6.25;;
15536;SDS011;7870;52.448;13.270;2023-04-24T04:21:29;8.00;;;6.45;;
15536;SDS011;7870;52.448;13.270;2023-04-24T04:24:07;7.00;;;6.30;;
15536;SDS011;7870;52.448;13.270;2023-04-24T04:26:40;7.60;;;6.80;;
15536;SDS011;7870;52.448;13.270;2023-04-24T04:29:08;9.38;;;6.57;;
15536;SDS011;7870;52.448;13.270;2023-04-24T04:31:40;7.03;;;6.32;;
15536;SDS011;7870;52.448;13.270;2023-04-24T04:34:10;9.23;;;6.67;;
15536;SDS011;7870;52.448;13.270;2023-04-24T04:36:38;8.57;;;6.50;;
15536;SDS011;7870;52.448;13.270;2023-04-24T04:39:29;9.45;;;7.47;;
15536;SDS011;7870;52.448;13.270;2023-04-24T04:41:59;7.75;;;7.05;;
15536;SDS011;7870;52.448;13.270;2023-04-24T04:44:33;7.13;;;5.97;;
15536;SDS011;7870;52.448;13.270;2023-04-24T04:47:03;7.30;;;6.60;;
15536;SDS011;7870;52.448;13.270;2023-04-24T04:49:34;6.50;;;5.90;;
15536;SDS011;7870;52.448;13.270;2023-04-24T04:52:01;6.75;;;5.93;;
15536;SDS011;7870;52.448;13.270;2023-04-24T04:54:27;6.63;;;6.03;;
15536;SDS011;7870;52.448;13.270;2023-04-24T04:56:55;6.32;;;5.32;;
15536;SDS011;7870;52.448;13.270;2023-04-24T04:59:23;5.50;;;4.93;;
15536;SDS011;7870;52.448;13.270;2023-04-24T05:01:56;6.13;;;5.53;;
15536;SDS011;7870;52.448;13.270;2023-04-24T05:04:22;6.63;;;5.95;;
15536;SDS011;7870;52.448;13.270;2023-04-24T05:06:49;6.38;;;5.25;;
15536;SDS011;7870;52.448;13.270;2023-04-24T05:09:17;6.97;;;5.50;;
15536;SDS011;7870;52.448;13.270;2023-04-24T05:11:51;6.65;;;5.93;;
15536;SDS011;7870;52.448;13.270;2023-04-24T05:14:18;6.93;;;5.55;;
15536;SDS011;7870;52.448;13.270;2023-04-24T05:16:45;6.97;;;5.00;;
15536;SDS011;7870;52.448;13.270;2023-04-24T05:19:13;6.07;;;5.03;;
15536;SDS011;7870;52.448;13.270;2023-04-24T05:21:41;6.30;;;4.90;;
15536;SDS011;7870;52.448;13.270;2023-04-24T05:24:09;6.28;;;4.85;;
15536;SDS011;7870;52.448;13.270;2023-04-24T05:26:45;6.28;;;4.53;;
15536;SDS011;7870;52.448;13.270;2023-04-24T05:29:14;5.03;;;4.40;;
15536;SDS011;7870;52.448;13.270;2023-04-24T05:31:41;4.68;;;3.78;;
15536;SDS011;7870;52.448;13.270;2023-04-24T05:34:08;4.95;;;4.22;;
15536;SDS011;7870;52.448;13.270;2023-04-24T05:36:38;4.82;;;3.78;;
15536;SDS011;7870;52.448;13.270;2023-04-24T05:39:05;5.97;;;4.03;;
15536;SDS011;7870;52.448;13.270;2023-04-24T05:41:33;4.28;;;3.28;;
15536;SDS011;7870;52.448;13.270;2023-04-24T05:44:00;4.15;;;3.35;;
15536;SDS011;7870;52.448;13.270;2023-04-24T05:46:27;4.28;;;2.95;;
15536;SDS011;7870;52.448;13.270;2023-04-24T05:48:55;4.95;;;3.30;;
15536;SDS011;7870;52.448;13.270;2023-04-24T05:51:21;3.47;;;2.97;;
15536;SDS011;7870;52.448;13.270;2023-04-24T05:53:48;4.28;;;2.80;;
15536;SDS011;7870;52.448;13.270;2023-04-24T05:56:15;3.28;;;2.63;;
15536;SDS011;7870;52.448;13.270;2023-04-24T05:58:41;4.70;;;2.60;;
15536;SDS011;7870;52.448;13.270;2023-04-24T06:01:08;4.15;;;2.90;;
15536;SDS011;7870;52.448;13.270;2023-04-24T06:03:37;3.42;;;2.50;;
15536;SDS011;7870;52.448;13.270;2023-04-24T06:06:05;3.60;;;2.55;;
15536;SDS011;7870;52.448;13.270;2023-04-24T06:08:33;3.25;;;1.90;;
15536;SDS011;7870;52.448;13.270;2023-04-24T06:11:00;4.15;;;2.35;;
15536;SDS011;7870;52.448;13.270;2023-04-24T06:13:30;3.28;;;2.05;;
15536;SDS011;7870;52.448;13.270;2023-04-24T06:16:16;4.70;;;2.28;;
15536;SDS011;7870;52.448;13.270;2023-04-24T06:18:49;2.95;;;1.85;;
15536;SDS011;7870;52.448;13.270;2023-04-24T06:21:18;4.30;;;2.10;;
15536;SDS011;7870;52.448;13.270;2023-04-24T06:23:44;3.72;;;1.75;;
15536;SDS011;7870;52.448;13.270;2023-04-24T06:26:13;4.97;;;1.80;;
15536;SDS011;7870;52.448;13.270;2023-04-24T06:28:40;3.58;;;1.42;;
15536;SDS011;7870;52.448;13.270;2023-04-24T06:31:07;2.63;;;1.40;;
15536;SDS011;7870;52.448;13.270;2023-04-24T06:33:33;4.93;;;1.30;;
15536;SDS011;7870;52.448;13.270;2023-04-24T06:36:00;2.28;;;1.30;;
15536;SDS011;7870;52.448;13.270;2023-04-24T06:38:27;2.50;;;1.15;;
15536;SDS011;7870;52.448;13.270;2023-04-24T06:40:55;4.28;;;1.30;;
15536;SDS011;7870;52.448;13.270;2023-04-24T06:43:22;3.78;;;1.17;;
15536;SDS011;7870;52.448;13.270;2023-04-24T06:45:49;4.03;;;1.30;;
15536;SDS011;7870;52.448;13.270;2023-04-24T06:48:16;2.75;;;1.15;;
15536;SDS011;7870;52.448;13.270;2023-04-24T06:50:43;2.65;;;0.80;;
15536;SDS011;7870;52.448;13.270;2023-04-24T06:53:09;2.38;;;0.93;;
15536;SDS011;7870;52.448;13.270;2023-04-24T06:55:38;5.20;;;0.93;;
15536;SDS011;7870;52.448;13.270;2023-04-24T06:58:05;7.25;;;1.00;;
15536;SDS011;7870;52.448;13.270;2023-04-24T07:00:32;3.45;;;0.77;;
15536;SDS011;7870;52.448;13.270;2023-04-24T07:02:58;2.05;;;0.80;;
15536;SDS011;7870;52.448;13.270;2023-04-24T07:05:26;3.63;;;1.05;;
15536;SDS011;7870;52.448;13.270;2023-04-24T07:07:52;1.77;;;0.85;;
15536;SDS011;7870;52.448;13.270;2023-04-24T07:10:19;2.47;;;0.80;;
15536;SDS011;7870;52.448;13.270;2023-04-24T07:12:46;1.58;;;0.73;;
15536;SDS011;7870;52.448;13.270;2023-04-24T07:15:13;1.85;;;0.80;;
15536;SDS011;7870;52.448;13.270;2023-04-24T07:17:40;2.25;;;0.63;;
15536;SDS011;7870;52.448;13.270;2023-04-24T07:20:10;1.80;;;0.63;;
15536;SDS011;7870;52.448;13.270;2023-04-24T07:22:37;1.77;;;0.65;;
15536;SDS011;7870;52.448;13.270;2023-04-24T07:25:05;2.40;;;0.70;;
15536;SDS011;7870;52.448;13.270;2023-04-24T07:27:32;1.10;;;0.60;;
15536;SDS011;7870;52.448;13.270;2023-04-24T07:29:59;1.73;;;0.50;;
15536;SDS011;7870;52.448;13.270;2023-04-24T07:32:28;1.05;;;0.63;;
15536;SDS011;7870;52.448;13.270;2023-04-24T07:34:55;4.07;;;0.63;;
15536;SDS011;7870;52.448;13.270;2023-04-24T07:37:22;2.05;;;0.60;;
15536;SDS011;7870;52.448;13.270;2023-04-24T07:39:49;2.40;;;0.70;;
15536;SDS011;7870;52.448;13.270;2023-04-24T07:42:15;2.63;;;0.52;;
15536;SDS011;7870;52.448;13.270;2023-04-24T07:44:42;1.98;;;0.50;;
15536;SDS011;7870;52.448;13.270;2023-04-24T07:47:08;0.93;;;0.57;;
15536;SDS011;7870;52.448;13.270;2023-04-24T07:49:35;3.70;;;1.00;;
15536;SDS011;7870;52.448;13.270;2023-04-24T07:52:01;2.45;;;0.60;;
15536;SDS011;7870;52.448;13.270;2023-04-24T07:54:29;2.40;;;0.50;;
15536;SDS011;7870;52.448;13.270;2023-04-24T07:56:55;1.80;;;0.70;;
15536;SDS011;7870;52.448;13.270;2023-04-24T07:59:22;1.00;;;0.50;;
15536;SDS011;7870;52.448;13.270;2023-04-24T08:01:49;5.25;;;0.85;;
15536;SDS011;7870;52.448;13.270;2023-04-24T08:04:15;2.55;;;0.90;;
15536;SDS011;7870;52.448;13.270;2023-04-24T08:06:42;2.40;;;0.55;;
15536;SDS011;7870;52.448;13.270;2023-04-24T08:09:09;2.20;;;0.85;;
15536;SDS011;7870;52.448;13.270;2023-04-24T08:11:35;0.63;;;0.40;;
15536;SDS011;7870;52.448;13.270;2023-04-24T08:14:02;2.58;;;0.50;;
15536;SDS011;7870;52.448;13.270;2023-04-24T08:16:29;1.88;;;0.45;;
15536;SDS011;7870;52.448;13.270;2023-04-24T08:18:55;3.03;;;0.45;;
15536;SDS011;7870;52.448;13.270;2023-04-24T08:21:22;2.45;;;0.60;;
15536;SDS011;7870;52.448;13.270;2023-04-24T08:23:49;2.40;;;0.88;;
15536;SDS011;7870;52.448;13.270;2023-04-24T08:26:16;4.82;;;2.58;;
15536;SDS011;7870;52.448;13.270;2023-04-24T08:28:42;9.48;;;0.70;;
15536;SDS011;7870;52.448;13.270;2023-04-24T08:31:09;1.73;;;0.50;;
15536;SDS011;7870;52.448;13.270;2023-04-24T08:33:36;1.05;;;0.50;;
15536;SDS011;7870;52.448;13.270;2023-04-24T08:36:03;2.28;;;0.43;;
15536;SDS011;7870;52.448;13.270;2023-04-24T08:38:30;1.00;;;0.40;;
15536;SDS011;7870;52.448;13.270;2023-04-24T08:40:58;2.72;;;0.55;;
15536;SDS011;7870;52.448;13.270;2023-04-24T08:43:26;1.27;;;0.55;;
15536;SDS011;7870;52.448;13.270;2023-04-24T08:45:55;1.55;;;0.68;;
15536;SDS011;7870;52.448;13.270;2023-04-24T08:48:22;1.65;;;0.60;;
15536;SDS011;7870;52.448;13.270;2023-04-24T08:50:57;3.03;;;0.60;;
15536;SDS011;7870;52.448;13.270;2023-04-24T08:53:25;2.47;;;0.63;;
15536;SDS011;7870;52.448;13.270;2023-04-24T08:55:52;2.83;;;0.50;;
15536;SDS011;7870;52.448;13.270;2023-04-24T08:58:21;1.77;;;0.60;;
15536;SDS011;7870;52.448;13.270;2023-04-24T09:00:49;3.13;;;0.60;;
15536;SDS011;7870;52.448;13.270;2023-04-24T09:03:16;1.45;;;0.70;;
15536;SDS011;7870;52.448;13.270;2023-04-24T09:05:44;3.05;;;0.80;;
15536;SDS011;7870;52.448;13.270;2023-04-24T09:08:13;3.22;;;0.88;;
15536;SDS011;7870;52.448;13.270;2023-04-24T09:10:40;3.95;;;0.70;;
15536;SDS011;7870;52.448;13.270;2023-04-24T09:13:07;1.02;;;0.50;;
15536;SDS011;7870;52.448;13.270;2023-04-24T09:15:37;1.93;;;0.80;;
15536;SDS011;7870;52.448;13.270;2023-04-24T09:18:05;3.72;;;0.88;;
15536;SDS011;7870;52.448;13.270;2023-04-24T09:20:31;3.75;;;1.00;;
15536;SDS011;7870;52.448;13.270;2023-04-24T09:22:58;1.40;;;0.70;;
15536;SDS011;7870;52.448;13.270;2023-04-24T09:25:32;1.67;;;0.80;;
15536;SDS011;7870;52.448;13.270;2023-04-24T09:28:00;1.65;;;0.70;;
15536;SDS011;7870;52.448;13.270;2023-04-24T09:30:28;3.05;;;0.70;;
15536;SDS011;7870;52.448;13.270;2023-04-24T09:33:10;2.60;;;0.55;;
15536;SDS011;7870;52.448;13.270;2023-04-24T09:35:41;2.50;;;0.80;;
15536;SDS011;7870;52.448;13.270;2023-04-24T09:38:09;2.22;;;0.55;;
15536;SDS011;7870;52.448;13.270;2023-04-24T09:40:37;1.67;;;0.60;;
15536;SDS011;7870;52.448;13.270;2023-04-24T09:43:09;1.83;;;0.68;;
15536;SDS011;7870;52.448;13.270;2023-04-24T09:45:37;2.73;;;0.80;;
15536;SDS011;7870;52.448;13.270;2023-04-24T09:48:05;2.88;;;0.63;;
15536;SDS011;7870;52.448;13.270;2023-04-24T09:50:34;2.67;;;0.60;;
15536;SDS011;7870;52.448;13.270;2023-04-24T09:53:05;1.48;;;0.60;;
15536;SDS011;7870;52.448;13.270;2023-04-24T09:55:38;1.90;;;0.80;;
15536;SDS011;7870;52.448;13.270;2023-04-24T09:58:05;2.25;;;0.82;;
15536;SDS011;7870;52.448;13.270;2023-04-24T10:00:34;3.28;;;0.65;;
15536;SDS011;7870;52.448;13.270;2023-04-24T10:03:02;1.58;;;0.80;;
15536;SDS011;7870;52.448;13.270;2023-04-24T10:05:30;2.58;;;0.65;;
15536;SDS011;7870;52.448;13.270;2023-04-24T10:10:33;2.25;;;0.75;;
15536;SDS011;7870;52.448;13.270;2023-04-24T10:13:01;3.40;;;0.57;;
15536;SDS011;7870;52.448;13.270;2023-04-24T10:15:28;3.10;;;0.70;;
15536;SDS011;7870;52.448;13.270;2023-04-24T10:17:54;1.73;;;0.70;;
15536;SDS011;7870;52.448;13.270;2023-04-24T10:20:22;3.55;;;0.60;;
15536;SDS011;7870;52.448;13.270;2023-04-24T10:22:51;1.95;;;0.52;;
15536;SDS011;7870;52.448;13.270;2023-04-24T10:25:22;1.95;;;0.93;;
15536;SDS011;7870;52.448;13.270;2023-04-24T10:27:51;1.35;;;0.60;;
15536;SDS011;7870;52.448;13.270;2023-04-24T10:30:18;3.15;;;0.80;;
15536;SDS011;7870;52.448;13.270;2023-04-24T10:32:46;1.30;;;0.63;;
15536;SDS011;7870;52.448;13.270;2023-04-24T10:35:13;2.42;;;0.98;;
15536;SDS011;7870;52.448;13.270;2023-04-24T10:37:40;2.75;;;0.98;;
15536;SDS011;7870;52.448;13.270;2023-04-24T10:40:09;1.02;;;0.60;;
15536;SDS011;7870;52.448;13.270;2023-04-24T10:42:40;2.28;;;0.80;;
15536;SDS011;7870;52.448;13.270;2023-04-24T10:45:16;2.15;;;0.93;;
15536;SDS011;7870;52.448;13.270;2023-04-24T10:50:41;1.42;;;0.90;;
15536;SDS011;7870;52.448;13.270;2023-04-24T10:53:19;2.50;;;0.70;;
15536;SDS011;7870;52.448;13.270;2023-04-24T10:55:47;2.35;;;0.80;;
15536;SDS011;7870;52.448;13.270;2023-04-24T10:58:15;2.25;;;0.88;;
15536;SDS011;7870;52.448;13.270;2023-04-24T11:00:43;1.70;;;0.60;;
15536;SDS011;7870;52.448;13.270;2023-04-24T11:03:22;2.83;;;0.68;;
15536;SDS011;7870;52.448;13.270;2023-04-24T11:05:57;2.30;;;0.60;;
15536;SDS011;7870;52.448;13.270;2023-04-24T11:08:30;2.25;;;0.60;;
15536;SDS011;7870;52.448;13.270;2023-04-24T11:11:17;1.23;;;0.50;;
15536;SDS011;7870;52.448;13.270;2023-04-24T11:16:23;1.52;;;0.70;;
15536;SDS011;7870;52.448;13.270;2023-04-24T11:18:59;2.50;;;0.52;;
15536;SDS011;7870;52.448;13.270;2023-04-24T11:21:30;3.20;;;0.95;;
15536;SDS011;7870;52.448;13.270;2023-04-24T11:27:09;2.97;;;0.93;;
15536;SDS011;7870;52.448;13.270;2023-04-24T11:32:27;1.63;;;0.80;;
15536;SDS011;7870;52.448;13.270;2023-04-24T11:35:01;2.85;;;0.98;;
15536;SDS011;7870;52.448;13.270;2023-04-24T11:40:03;2.80;;;1.23;;
15536;SDS011;7870;52.448;13.270;2023-04-24T11:42:33;2.70;;;0.82;;
15536;SDS011;7870;52.448;13.270;2023-04-24T11:45:07;2.05;;;0.60;;
15536;SDS011;7870;52.448;13.270;2023-04-24T11:47:35;2.58;;;0.90;;
15536;SDS011;7870;52.448;13.270;2023-04-24T11:50:03;3.13;;;0.90;;
15536;SDS011;7870;52.448;13.270;2023-04-24T11:52:31;1.50;;;0.70;;
15536;SDS011;7870;52.448;13.270;2023-04-24T11:54:58;2.17;;;0.77;;
15536;SDS011;7870;52.448;13.270;2023-04-24T11:57:26;2.72;;;0.90;;
15536;SDS011;7870;52.448;13.270;2023-04-24T11:59:55;1.65;;;0.70;;
15536;SDS011;7870;52.448;13.270;2023-04-24T12:02:22;2.10;;;0.85;;
15536;SDS011;7870;52.448;13.270;2023-04-24T12:04:51;3.05;;;0.90;;
15536;SDS011;7870;52.448;13.270;2023-04-24T12:07:21;3.67;;;1.10;;
15536;SDS011;7870;52.448;13.270;2023-04-24T12:09:58;1.20;;;0.50;;
15536;SDS011;7870;52.448;13.270;2023-04-24T12:12:26;2.63;;;0.60;;
15536;SDS011;7870;52.448;13.270;2023-04-24T12:14:55;1.17;;;0.77;;
15536;SDS011;7870;52.448;13.270;2023-04-24T12:17:24;2.83;;;1.20;;
15536;SDS011;7870;52.448;13.270;2023-04-24T12:20:03;1.42;;;0.50;;
15536;SDS011;7870;52.448;13.270;2023-04-24T12:22:47;0.98;;;0.47;;
15536;SDS011;7870;52.448;13.270;2023-04-24T12:25:20;1.83;;;0.50;;
15536;SDS011;7870;52.448;13.270;2023-04-24T12:27:55;1.55;;;0.63;;
15536;SDS011;7870;52.448;13.270;2023-04-24T12:30:42;0.98;;;0.43;;
15536;SDS011;7870;52.448;13.270;2023-04-24T12:33:18;1.50;;;0.60;;
15536;SDS011;7870;52.448;13.270;2023-04-24T12:35:48;1.30;;;0.40;;
15536;SDS011;7870;52.448;13.270;2023-04-24T12:38:21;2.72;;;0.60;;
15536;SDS011;7870;52.448;13.270;2023-04-24T12:41:00;1.02;;;0.50;;
15536;SDS011;7870;52.448;13.270;2023-04-24T12:43:28;1.95;;;0.55;;
15536;SDS011;7870;52.448;13.270;2023-04-24T12:45:54;2.17;;;0.50;;
15536;SDS011;7870;52.448;13.270;2023-04-24T12:48:21;4.07;;;0.57;;
15536;SDS011;7870;52.448;13.270;2023-04-24T12:50:48;2.95;;;0.70;;
15536;SDS011;7870;52.448;13.270;2023-04-24T12:53:15;2.05;;;0.70;;
15536;SDS011;7870;52.448;13.270;2023-04-24T12:55:42;2.45;;;0.50;;
15536;SDS011;7870;52.448;13.270;2023-04-24T12:58:08;0.98;;;0.40;;
15536;SDS011;7870;52.448;13.270;2023-04-24T13:00:35;1.45;;;0.52;;
15536;SDS011;7870;52.448;13.270;2023-04-24T13:03:02;1.35;;;0.60;;
15536;SDS011;7870;52.448;13.270;2023-04-24T13:05:30;1.35;;;0.40;;
15536;SDS011;7870;52.448;13.270;2023-04-24T13:07:57;2.00;;;0.60;;
15536;SDS011;7870;52.448;13.270;2023-04-24T13:10:23;5.82;;;1.27;;
15536;SDS011;7870;52.448;13.270;2023-04-24T13:12:50;1.73;;;0.60;;
15536;SDS011;7870;52.448;13.270;2023-04-24T13:15:16;1.48;;;0.50;;
15536;SDS011;7870;52.448;13.270;2023-04-24T13:17:43;1.55;;;0.50;;
15536;SDS011;7870;52.448;13.270;2023-04-24T13:20:10;2.67;;;0.50;;
15536;SDS011;7870;52.448;13.270;2023-04-24T13:22:36;2.75;;;0.60;;
15536;SDS011;7870;52.448;13.270;2023-04-24T13:25:04;3.70;;;0.50;;
15536;SDS011;7870;52.448;13.270;2023-04-24T13:27:32;1.17;;;0.50;;
15536;SDS011;7870;52.448;13.270;2023-04-24T13:29:58;1.73;;;0.65;;
15536;SDS011;7870;52.448;13.270;2023-04-24T13:32:25;0.82;;;0.40;;
15536;SDS011;7870;52.448;13.270;2023-04-24T13:34:52;2.60;;;0.80;;
15536;SDS011;7870;52.448;13.270;2023-04-24T13:37:19;1.30;;;0.45;;
15536;SDS011;7870;52.448;13.270;2023-04-24T13:39:46;1.13;;;0.45;;
15536;SDS011;7870;52.448;13.270;2023-04-24T13:42:12;1.60;;;0.50;;
15536;SDS011;7870;52.448;13.270;2023-04-24T13:44:39;1.00;;;0.52;;
15536;SDS011;7870;52.448;13.270;2023-04-24T13:47:06;2.45;;;0.85;;
15536;SDS011;7870;52.448;13.270;2023-04-24T13:49:33;1.25;;;0.50;;
15536;SDS011;7870;52.448;13.270;2023-04-24T13:51:59;2.35;;;0.63;;
15536;SDS011;7870;52.448;13.270;2023-04-24T13:54:26;0.75;;;0.40;;
15536;SDS011;7870;52.448;13.270;2023-04-24T13:56:53;1.48;;;0.70;;
15536;SDS011;7870;52.448;13.270;2023-04-24T13:59:22;1.83;;;0.63;;
15536;SDS011;7870;52.448;13.270;2023-04-24T14:01:49;1.50;;;0.60;;
15536;SDS011;7870;52.448;13.270;2023-04-24T14:04:16;1.92;;;0.50;;
15536;SDS011;7870;52.448;13.270;2023-04-24T14:06:43;2.60;;;0.60;;
15536;SDS011;7870;52.448;13.270;2023-04-24T14:09:10;2.08;;;0.55;;
15536;SDS011;7870;52.448;13.270;2023-04-24T14:11:36;2.35;;;0.57;;
15536;SDS011;7870;52.448;13.270;2023-04-24T14:14:03;1.73;;;0.60;;
15536;SDS011;7870;52.448;13.270;2023-04-24T14:16:29;0.73;;;0.50;;
15536;SDS011;7870;52.448;13.270;2023-04-24T14:18:57;3.95;;;0.80;;
15536;SDS011;7870;52.448;13.270;2023-04-24T14:21:23;1.05;;;0.60;;
15536;SDS011;7870;52.448;13.270;2023-04-24T14:23:50;1.35;;;0.68;;
15536;SDS011;7870;52.448;13.270;2023-04-24T14:26:17;3.25;;;0.60;;
15536;SDS011;7870;52.448;13.270;2023-04-24T14:28:43;0.98;;;0.70;;
15536;SDS011;7870;52.448;13.270;2023-04-24T14:31:10;2.47;;;0.80;;
15536;SDS011;7870;52.448;13.270;2023-04-24T14:33:36;1.73;;;0.82;;
15536;SDS011;7870;52.448;13.270;2023-04-24T14:36:03;1.55;;;0.85;;
15536;SDS011;7870;52.448;13.270;2023-04-24T14:38:31;1.75;;;0.80;;
15536;SDS011;7870;52.448;13.270;2023-04-24T14:40:58;1.83;;;0.63;;
15536;SDS011;7870;52.448;13.270;2023-04-24T14:43:33;2.13;;;0.70;;
15536;SDS011;7870;52.448;13.270;2023-04-24T14:46:01;1.95;;;0.80;;
15536;SDS011;7870;52.448;13.270;2023-04-24T14:48:28;2.05;;;0.70;;
15536;SDS011;7870;52.448;13.270;2023-04-24T14:50:55;2.00;;;0.82;;
15536;SDS011;7870;52.448;13.270;2023-04-24T14:53:22;3.60;;;0.93;;
15536;SDS011;7870;52.448;13.270;2023-04-24T14:55:48;1.77;;;0.80;;
15536;SDS011;7870;52.448;13.270;2023-04-24T14:58:15;1.15;;;0.60;;
15536;SDS011;7870;52.448;13.270;2023-04-24T15:00:41;1.38;;;0.70;;
15536;SDS011;7870;52.448;13.270;2023-04-24T15:03:08;1.98;;;0.82;;
15536;SDS011;7870;52.448;13.270;2023-04-24T15:05:35;1.38;;;0.85;;
15536;SDS011;7870;52.448;13.270;2023-04-24T15:08:03;2.38;;;0.63;;
15536;SDS011;7870;52.448;13.270;2023-04-24T15:10:30;2.38;;;0.80;;